Time;durP1;ratioP1;P1;durP2;ratioP2;P2;SDS_P1;SDS_P2;PMS_P1;PMS_P2;Temp;Humidity;BMP_temperature;BMP_pressure;BME280_temperature;BME280_humidity;BME280_pressure;Samples;Min_cycle;Max_cycle;Signal;HPM_P1;HPM_P2
2022/12/15 00:38:55;;;;;;;;;;;;;;;;;;5090893;28;659;-68
2022/12/15 00:41:20;;;;;;;;;;;;;;;;;;5090178;28;845;-68
2022/12/15 00:43:46;;;;;;;;;;;;;;;;;;5089562;28;1333;-68
2022/12/15 00:48:55;;;;;;;;;;;;;;;;;;5090349;28;670;-68
2022/12/15 00:51:20;;;;;;;;;;;;;;;;;;5088991;28;1313;-68
2022/12/15 01:21:07;;;;;;;;;;;;;;;;;;5090471;28;698;-68
2022/12/15 01:23:33;;;;;;;;;;;;;;;;;;5090658;28;959;-68
2022/12/15 01:25:59;;;;;;;;;;;;;;;;;;5088840;28;758;-68
2022/12/15 01:28:24;;;;;;;;;;;;;;;;;;5071816;28;1195;-68
2022/12/15 01:30:50;;;;;;;;;;;;;;;;;;5089959;28;856;-68
2022/12/15 01:33:16;;;;;;;;;;;;;;;;;;5087887;28;806;-68
2022/12/15 01:35:42;;;;;;;;;;;;;;;;;;5089962;28;1910;-68
2022/12/15 01:38:08;;;;;;;;;;;;;;;;;;5088007;28;1518;-68
2022/12/15 01:40:45;;;;;;;;;;;;;;;;;;5088614;28;1316;-68
2022/12/15 01:43:15;;;;;;;;;;;;;;;;;;5089299;28;951;-68
2022/12/15 01:45:46;;;;;;;;;;;;;;;;;;5088690;28;1186;-68
2022/12/15 01:48:12;;;;;;;;;;;;;;;;;;5089359;28;1032;-68
2022/12/15 01:50:45;;;;;;;;;;;;;;;;;;5089989;28;1267;-68
2022/12/15 01:53:12;;;;;;;;;;;;;;;;;;5087921;28;1210;-68
2022/12/15 01:55:39;;;;;;;;;;;;;;;;;;5090233;28;1972;-68
2022/12/15 01:58:07;;;;;;;;;;;;;;;;;;5088075;28;1245;-68
2022/12/15 02:00:32;;;;;;;;;;;;;;;;;;5092406;28;1233;-68
2022/12/15 02:02:59;;;;;;;;;;;;;;;;;;5075484;28;1374;-68
2022/12/15 02:05:25;;;;;;;;;;;;;;;;;;5093704;28;900;-68
2022/12/15 02:07:50;;;;;;;;;;;;;;;;;;5074973;28;1231;-68
2022/12/15 02:10:15;;;;;;;;;;;;;;;;;;5091251;28;877;-68
2022/12/15 02:13:00;;;;;;;;;;;;;;;;;;5093380;28;975;-68
2022/12/15 02:15:31;;;;;;;;;;;;;;;;;;5091888;28;1957;-71
2022/12/15 02:18:04;;;;;;;;;;;;;;;;;;5093069;28;903;-72
2022/12/15 02:20:48;;;;;;;;;;;;;;;;;;5092543;28;950;-71
2022/12/15 02:23:29;;;;;;;;;;;;;;;;;;5090845;28;1182;-71
2022/12/15 02:26:10;;;;;;;;;;;;;;;;;;5091544;28;1190;-71
2022/12/15 02:28:47;;;;;;;;;;;;;;;;;;5091582;28;1348;-72
2022/12/15 02:34:06;;;;;;;;;;;;;;;;;;5091922;28;625;-72
2022/12/15 02:36:34;;;;;;;;;;;;;;;;;;5091302;28;1972;-68
2022/12/15 02:39:00;;;;;;;;;;;;;;;;;;5092545;28;935;-68
2022/12/15 02:41:33;;;;;;;;;;;;;;;;;;5124972;27;1248;-68
2022/12/15 02:43:59;;;;;;;;;;;;;;;;;;5090801;28;1210;-68
2022/12/15 02:46:37;;;;;;;;;;;;;;;;;;5090727;28;1348;-68
2022/12/15 02:49:22;;;;;;;;;;;;;;;;;;5091925;28;1057;-68
2022/12/15 02:51:50;;;;;;;;;;;;;;;;;;5085115;28;1075;-68
2022/12/15 02:54:16;;;;;;;;;;;;;;;;;;5091419;28;1340;-68
2022/12/15 02:57:07;;;;;;;;;;;;;;;;;;5093392;28;1914;-68
2022/12/15 02:59:54;;;;;;;;;;;;;;;;;;5090216;28;1128;-68
2022/12/15 03:02:21;;;;;;;;;;;;;;;;;;5089832;28;1389;-68
2022/12/15 03:04:46;;;;;;;;;;;;;;;;;;5092493;28;1034;-68
2022/12/15 03:07:13;;;;;;;;;;;;;;;;;;5090090;28;1333;-68
2022/12/15 03:09:38;;;;;;;;;;;;;;;;;;5073711;28;1202;-68
2022/12/15 03:12:03;;;;;;;;;;;;;;;;;;5072378;28;1297;-68
2022/12/15 03:14:28;;;;;;;;;;;;;;;;;;5090017;28;1142;-68
2022/12/15 03:16:54;;;;;;;;;;;;;;;;;;5073428;28;1969;-68
2022/12/15 03:19:19;;;;;;;;;;;;;;;;;;5073130;28;1357;-68
2022/12/15 03:21:45;;;;;;;;;;;;;;;;;;5091952;28;769;-68
2022/12/15 03:24:10;;;;;;;;;;;;;;;;;;5072673;28;1297;-68
2022/12/15 03:26:35;;;;;;;;;;;;;;;;;;5073137;28;1314;-68
2022/12/15 03:29:01;;;;;;;;;;;;;;;;;;5090994;28;945;-68
2022/12/15 03:31:27;;;;;;;;;;;;;;;;;;5090140;28;781;-68
2022/12/15 03:33:52;;;;;;;;;;;;;;;;;;5090228;28;864;-68
2022/12/15 03:36:17;;;;;;;;;;;;;;;;;;5089487;28;1910;-68
2022/12/15 03:38:42;;;;;;;;;;;;;;;;;;5091139;28;971;-68
2022/12/15 03:41:08;;;;;;;;;;;;;;;;;;5090900;28;876;-68
2022/12/15 03:43:33;;;;;;;;;;;;;;;;;;5090077;28;820;-68
2022/12/15 03:45:58;;;;;;;;;;;;;;;;;;5090317;28;1273;-68
2022/12/15 03:48:23;;;;;;;;;;;;;;;;;;5090437;28;904;-68
2022/12/15 03:50:50;;;;;;;;;;;;;;;;;;5090930;28;1680;-68
2022/12/15 03:53:15;;;;;;;;;;;;;;;;;;5091076;28;837;-68
2022/12/15 03:55:41;;;;;;;;;;;;;;;;;;5091345;28;1910;-68
2022/12/15 03:58:06;;;;;;;;;;;;;;;;;;5089664;28;943;-68
2022/12/15 04:00:31;;;;;;;;;;;;;;;;;;5089413;28;777;-68
2022/12/15 04:02:56;;;;;;;;;;;;;;;;;;5091346;28;750;-68
2022/12/15 04:05:24;;;;;;;;;;;;;;;;;;5089276;28;872;-68
2022/12/15 04:07:50;;;;;;;;;;;;;;;;;;5089823;28;1182;-68
2022/12/15 04:10:15;;;;;;;;;;;;;;;;;;5090404;28;820;-69
2022/12/15 04:12:40;;;;;;;;;;;;;;;;;;5089686;28;864;-69
2022/12/15 04:15:07;;;;;;;;;;;;;;;;;;5089167;28;1298;-68
2022/12/15 04:17:32;;;;;;;;;;;;;;;;;;5090881;28;1905;-71
2022/12/15 04:20:10;;;;;;;;;;;;;;;;;;5090630;28;935;-71
2022/12/15 04:22:39;;;;;;;;;;;;;;;;;;5087966;28;1360;-71
2022/12/15 05:33:26;;;;;;;;;;;;;;;;;;5088847;28;695;-69
2022/12/15 05:35:54;;;;;;;;;;;;;;;;;;5093822;28;1967;-69
2022/12/15 05:38:19;;;;;;;;;;;;;;;;;;5091864;28;1234;-69
2022/12/15 05:40:45;;;;;;;;;;;;;;;;;;5075475;28;1257;-69
2022/12/15 05:43:10;;;;;;;;;;;;;;;;;;5091946;28;1360;-69
2022/12/15 05:45:35;;;;;;;;;;;;;;;;;;5085750;28;1296;-69
2022/12/15 05:48:01;;;;;;;;;;;;;;;;;;5110188;28;1158;-68
2022/12/15 05:50:26;;;;;;;;;;;;;;;;;;5100143;28;1310;-69
2022/12/15 05:52:51;;;;;;;;;;;;;;;;;;5091605;28;1199;-69
2022/12/15 05:55:17;;;;;;;;;;;;;;;;;;5101791;28;1246;-69
2022/12/15 05:57:43;;;;;;;;;;;;;;;;;;5090582;28;1913;-68
2022/12/15 06:00:08;;;;;;;;;;;;;;;;;;5091814;28;1309;-68
2022/12/15 06:02:34;;;;;;;;;;;;;;;;;;5109360;28;1234;-68
2022/12/15 06:04:59;;;;;;;;;;;;;;;;;;5110431;28;1171;-68
2022/12/15 06:07:24;;;;;;;;;;;;;;;;;;5092319;28;1230;-71
2022/12/15 06:09:49;;;;;;;;;;;;;;;;;;5093962;28;845;-71
2022/12/15 06:12:15;;;;;;;;;;;;;;;;;;5093518;28;879;-71
2022/12/15 06:14:41;;;;;;;;;;;;;;;;;;5074801;28;1017;-68
2022/12/15 06:17:06;;;;;;;;;;;;;;;;;;5091065;28;1902;-68
2022/12/15 06:19:32;;;;;;;;;;;;;;;;;;5091276;28;1301;-68
2022/12/15 06:21:57;;;;;;;;;;;;;;;;;;5092361;28;852;-68
2022/12/15 06:24:23;;;;;;;;;;;;;;;;;;5091133;28;813;-68
2022/12/15 06:26:48;;;;;;;;;;;;;;;;;;5091044;28;1365;-67
2022/12/15 06:29:14;;;;;;;;;;;;;;;;;;5090879;28;1186;-68
2022/12/15 06:31:39;;;;;;;;;;;;;;;;;;5091408;28;1270;-68
2022/12/15 06:34:09;;;;;;;;;;;;;;;;;;5074092;28;1212;-68
2022/12/15 06:36:35;;;;;;;;;;;;;;;;;;5092064;28;1886;-68
2022/12/15 06:39:01;;;;;;;;;;;;;;;;;;5090942;28;1265;-68
2022/12/15 06:41:28;;;;;;;;;;;;;;;;;;5092354;28;820;-68
2022/12/15 06:43:56;;;;;;;;;;;;;;;;;;5091038;28;1206;-68
2022/12/15 06:46:22;;;;;;;;;;;;;;;;;;5088969;28;1191;-68
2022/12/15 06:48:48;;;;;;;;;;;;;;;;;;5091905;28;892;-68
2022/12/15 06:51:14;;;;;;;;;;;;;;;;;;5091751;28;990;-68
2022/12/15 06:53:40;;;;;;;;;;;;;;;;;;5092013;28;932;-68
2022/12/15 06:56:07;;;;;;;;;;;;;;;;;;5091927;28;1918;-68
2022/12/15 06:58:33;;;;;;;;;;;;;;;;;;5090466;28;1313;-68
2022/12/15 07:01:03;;;;;;;;;;;;;;;;;;5107569;28;1206;-66
2022/12/15 07:03:28;;;;;;;;;;;;;;;;;;5092123;28;765;-68
2022/12/15 07:06:01;;;;;;;;;;;;;;;;;;5124574;27;808;-68
2022/12/15 07:08:26;;;;;;;;;;;;;;;;;;5091292;28;864;-68
2022/12/15 07:10:51;;;;;;;;;;;;;;;;;;5124338;27;824;-68
2022/12/15 07:13:17;;;;;;;;;;;;;;;;;;5123901;27;880;-68
2022/12/15 07:15:43;;;;;;;;;;;;;;;;;;5124564;27;1894;-68
2022/12/15 07:18:09;;;;;;;;;;;;;;;;;;5089786;28;1206;-67
2022/12/15 07:20:34;;;;;;;;;;;;;;;;;;5090092;28;1108;-69
2022/12/15 07:23:00;;;;;;;;;;;;;;;;;;5091453;28;903;-68
2022/12/15 07:25:25;;;;;;;;;;;;;;;;;;5115802;27;837;-68
2022/12/15 07:27:51;;;;;;;;;;;;;;;;;;5103437;28;950;-68
2022/12/15 07:30:16;;;;;;;;;;;;;;;;;;5070615;28;806;-68
2022/12/15 07:32:43;;;;;;;;;;;;;;;;;;5071607;28;970;-69
2022/12/15 07:35:08;;;;;;;;;;;;;;;;;;5104107;28;821;-66
2022/12/15 07:37:34;;;;;;;;;;;;;;;;;;5072138;28;1906;-66
2022/12/15 07:39:59;;;;;;;;;;;;;;;;;;5104919;28;904;-66
2022/12/15 07:42:27;;;;;;;;;;;;;;;;;;5072002;28;840;-66
2022/12/15 07:44:52;;;;;;;;;;;;;;;;;;5069100;28;1102;-69
2022/12/15 07:47:18;;;;;;;;;;;;;;;;;;5085739;28;1381;-69
2022/12/15 07:49:43;;;;;;;;;;;;;;;;;;5069313;28;1273;-68
2022/12/15 07:52:09;;;;;;;;;;;;;;;;;;5070130;28;1301;-68
2022/12/15 07:54:34;;;;;;;;;;;;;;;;;;5070645;28;970;-66
2022/12/15 07:57:01;;;;;;;;;;;;;;;;;;5068392;28;1984;-69
2022/12/15 07:59:26;;;;;;;;;;;;;;;;;;5070449;28;794;-71
2022/12/15 08:01:52;;;;;;;;;;;;;;;;;;5080334;28;1270;-70
2022/12/15 08:04:17;;;;;;;;;;;;;;;;;;5087941;28;1147;-70
2022/12/15 08:06:43;;;;;;;;;;;;;;;;;;5087485;28;1325;-70
2022/12/15 08:09:09;;;;;;;;;;;;;;;;;;5092122;28;1144;-70
2022/12/15 08:11:34;;;;;;;;;;;;;;;;;;5089917;28;1166;-70
2022/12/15 08:14:00;;;;;;;;;;;;;;;;;;5090877;28;936;-70
2022/12/15 08:16:26;;;;;;;;;;;;;;;;;;5072068;28;1948;-70
2022/12/15 08:18:51;;;;;;;;;;;;;;;;;;5090708;28;1002;-70
2022/12/15 08:21:16;;;;;;;;;;;;;;;;;;5090770;28;891;-70
2022/12/15 08:23:41;;;;;;;;;;;;;;;;;;5090815;28;920;-70
2022/12/15 08:26:12;;;;;;;;;;;;;;;;;;5072481;28;1214;-70
2022/12/15 08:28:38;;;;;;;;;;;;;;;;;;5089457;28;1341;-72
2022/12/15 08:31:08;;;;;;;;;;;;;;;;;;5088856;28;1301;-70
2022/12/15 08:33:34;;;;;;;;;;;;;;;;;;5090425;28;879;-70
2022/12/15 08:36:01;;;;;;;;;;;;;;;;;;5090187;28;1905;-70
2022/12/15 08:38:27;;;;;;;;;;;;;;;;;;5088440;28;1424;-70
2022/12/15 08:40:52;;;;;;;;;;;;;;;;;;5089257;28;816;-68
2022/12/15 08:43:17;;;;;;;;;;;;;;;;;;5089931;28;808;-71
2022/12/15 08:45:43;;;;;;;;;;;;;;;;;;5089054;28;1265;-70
2022/12/15 08:48:08;;;;;;;;;;;;;;;;;;5089219;28;1186;-71
2022/12/15 08:50:33;;;;;;;;;;;;;;;;;;5089090;28;1337;-70
2022/12/15 08:52:59;;;;;;;;;;;;;;;;;;5090563;28;895;-68
2022/12/15 08:55:24;;;;;;;;;;;;;;;;;;5088693;28;1064;-69
2022/12/15 08:57:49;;;;;;;;;;;;;;;;;;5090051;28;1902;-68
2022/12/15 09:00:15;;;;;;;;;;;;;;;;;;5090849;28;1066;-68
2022/12/15 09:02:40;;;;;;;;;;;;;;;;;;5090313;28;829;-69
2022/12/15 09:05:05;;;;;;;;;;;;;;;;;;5090387;28;939;-68
2022/12/15 09:07:31;;;;;;;;;;;;;;;;;;5090140;28;872;-69
2022/12/15 09:09:56;;;;;;;;;;;;;;;;;;5091973;28;884;-69
2022/12/15 09:12:21;;;;;;;;;;;;;;;;;;5075859;28;1234;-69
2022/12/15 09:14:47;;;;;;;;;;;;;;;;;;5092420;28;1154;-69
2022/12/15 09:17:12;;;;;;;;;;;;;;;;;;5093664;28;1907;-70
2022/12/15 09:19:37;;;;;;;;;;;;;;;;;;5094399;28;868;-69
2022/12/15 09:22:04;;;;;;;;;;;;;;;;;;5093857;28;904;-69
2022/12/15 09:24:29;;;;;;;;;;;;;;;;;;5092010;28;798;-69
2022/12/15 09:26:55;;;;;;;;;;;;;;;;;;5093686;28;1059;-69
2022/12/15 09:29:20;;;;;;;;;;;;;;;;;;5091875;28;1164;-69
2022/12/15 09:31:45;;;;;;;;;;;;;;;;;;5091065;28;1151;-70
2022/12/15 09:34:13;;;;;;;;;;;;;;;;;;5088855;28;1360;-70
2022/12/15 09:36:39;;;;;;;;;;;;;;;;;;5090385;28;1968;-69
2022/12/15 09:39:05;;;;;;;;;;;;;;;;;;5090436;28;1182;-69
2022/12/15 09:41:32;;;;;;;;;;;;;;;;;;5090349;28;1218;-71
2022/12/15 09:44:11;;;;;;;;;;;;;;;;;;5110497;28;1286;-71
2022/12/15 09:46:43;;;;;;;;;;;;;;;;;;5111010;28;1056;-69
2022/12/15 09:49:17;;;;;;;;;;;;;;;;;;5112607;28;1225;-69
2022/12/15 09:51:46;;;;;;;;;;;;;;;;;;5111207;28;1356;-69
2022/12/15 09:54:11;;;;;;;;;;;;;;;;;;5110717;28;1259;-70
2022/12/15 09:56:43;;;;;;;;;;;;;;;;;;5113217;28;1953;-70
2022/12/15 09:59:26;;;;;;;;;;;;;;;;;;5113296;28;1329;-70
2022/12/15 10:02:05;;;;;;;;;;;;;;;;;;5115459;28;820;-70
2022/12/15 10:04:42;;;;;;;;;;;;;;;;;;5114570;28;837;-70
2022/12/15 10:07:28;;;;;;;;;;;;;;;;;;5113133;28;1358;-70
2022/12/15 10:09:54;;;;;;;;;;;;;;;;;;5114536;28;819;-70
2022/12/15 10:12:23;;;;;;;;;;;;;;;;;;5114269;28;958;-69
2022/12/15 10:14:50;;;;;;;;;;;;;;;;;;5113690;28;890;-70
2022/12/15 10:17:21;;;;;;;;;;;;;;;;;;5111013;28;1909;-70
2022/12/15 10:19:58;;;;;;;;;;;;;;;;;;5114212;28;882;-71
2022/12/15 10:22:38;;;;;;;;;;;;;;;;;;5112955;28;1221;-70
2022/12/15 10:25:13;;;;;;;;;;;;;;;;;;5112981;28;1218;-70
2022/12/15 10:27:57;;;;;;;;;;;;;;;;;;5115026;28;868;-70
2022/12/15 10:30:22;;;;;;;;;;;;;;;;;;5114159;28;979;-70
2022/12/15 10:32:47;;;;;;;;;;;;;;;;;;5115001;27;851;-70
2022/12/15 10:35:15;;;;;;;;;;;;;;;;;;5114004;28;840;-70
2022/12/15 10:37:40;;;;;;;;;;;;;;;;;;5115072;28;1965;-70
2022/12/15 10:40:05;;;;;;;;;;;;;;;;;;5112502;28;1372;-70
2022/12/15 10:42:31;;;;;;;;;;;;;;;;;;5113069;28;899;-70
2022/12/15 10:44:57;;;;;;;;;;;;;;;;;;5113065;28;904;-70
2022/12/15 10:47:32;;;;;;;;;;;;;;;;;;5111056;28;1182;-70
2022/12/15 10:50:20;;;;;;;;;;;;;;;;;;5113072;28;911;-70
2022/12/15 10:52:45;;;;;;;;;;;;;;;;;;5112973;27;1198;-70
2022/12/15 10:55:29;;;;;;;;;;;;;;;;;;5111235;28;1162;-70
2022/12/15 10:57:58;;;;;;;;;;;;;;;;;;5112839;28;1886;-70
2022/12/15 11:00:26;;;;;;;;;;;;;;;;;;5112702;28;899;-69
2022/12/15 11:02:52;;;;;;;;;;;;;;;;;;5111405;28;1296;-69
2022/12/15 11:05:17;;;;;;;;;;;;;;;;;;5110784;28;1095;-70
2022/12/15 11:07:47;;;;;;;;;;;;;;;;;;5112461;28;860;-71
2022/12/15 11:10:15;;;;;;;;;;;;;;;;;;5110661;28;1203;-70
2022/12/15 11:12:52;;;;;;;;;;;;;;;;;;5111495;28;1530;-70
2022/12/15 11:15:20;;;;;;;;;;;;;;;;;;5111787;28;809;-69
2022/12/15 11:17:47;;;;;;;;;;;;;;;;;;5112425;28;1894;-69
2022/12/15 11:20:19;;;;;;;;;;;;;;;;;;5111915;28;900;-70
2022/12/15 11:22:51;;;;;;;;;;;;;;;;;;5111667;28;1340;-69
2022/12/15 11:25:48;;;;;;;;;;;;;;;;;;5111593;28;899;-70
2022/12/15 11:28:15;;;;;;;;;;;;;;;;;;5088025;28;1400;-69
2022/12/15 11:30:44;;;;;;;;;;;;;;;;;;5112762;28;805;-69
2022/12/15 11:33:09;;;;;;;;;;;;;;;;;;5111715;28;754;-69
2022/12/15 11:35:53;;;;;;;;;;;;;;;;;;5111151;28;856;-69
2022/12/15 11:38:26;;;;;;;;;;;;;;;;;;5110445;28;1206;-68
2022/12/15 11:40:53;;;;;;;;;;;;;;;;;;5110922;28;1265;-69
2022/12/15 11:43:30;;;;;;;;;;;;;;;;;;5111562;28;781;-68
2022/12/15 11:46:16;;;;;;;;;;;;;;;;;;5110076;28;1388;-69
2022/12/15 11:48:55;;;;;;;;;;;;;;;;;;5111814;28;836;-69
2022/12/15 11:51:21;;;;;;;;;;;;;;;;;;5110994;28;1289;-69
2022/12/15 11:53:46;;;;;;;;;;;;;;;;;;5110903;28;1241;-69
2022/12/15 11:56:11;;;;;;;;;;;;;;;;;;5111718;28;1913;-69
2022/12/15 11:58:36;;;;;;;;;;;;;;;;;;5113089;27;963;-69
2022/12/15 12:01:13;;;;;;;;;;;;;;;;;;5112498;28;1046;-69
2022/12/15 12:03:44;;;;;;;;;;;;;;;;;;5112728;28;855;-68
2022/12/15 12:06:15;;;;;;;;;;;;;;;;;;5112194;28;911;-68
2022/12/15 12:08:46;;;;;;;;;;;;;;;;;;5111745;28;848;-69
2022/12/15 12:11:15;;;;;;;;;;;;;;;;;;5109077;28;1368;-69
2022/12/15 12:13:53;;;;;;;;;;;;;;;;;;5111325;28;895;-68
2022/12/15 12:16:33;;;;;;;;;;;;;;;;;;5108917;28;1960;-68
2022/12/15 12:19:02;;;;;;;;;;;;;;;;;;5109504;28;1217;-68
2022/12/15 12:21:30;;;;;;;;;;;;;;;;;;5108811;28;1044;-68
2022/12/15 12:24:13;;;;;;;;;;;;;;;;;;5109546;28;1336;-69
2022/12/15 12:26:44;;;;;;;;;;;;;;;;;;5109388;28;1514;-70
2022/12/15 12:29:28;;;;;;;;;;;;;;;;;;5109735;28;1214;-70
2022/12/15 12:31:54;;;;;;;;;;;;;;;;;;5109389;28;1299;-70
2022/12/15 12:34:35;;;;;;;;;;;;;;;;;;5108483;28;1268;-71
2022/12/15 12:37:12;;;;;;;;;;;;;;;;;;5109246;28;1897;-68
2022/12/15 12:39:38;;;;;;;;;;;;;;;;;;5108887;28;1222;-68
2022/12/15 12:42:08;;;;;;;;;;;;;;;;;;5110887;28;1003;-69
2022/12/15 12:44:37;;;;;;;;;;;;;;;;;;5109454;28;1008;-69
2022/12/15 12:47:25;;;;;;;;;;;;;;;;;;5109500;28;1324;-69
2022/12/15 12:49:53;;;;;;;;;;;;;;;;;;5101002;28;1223;-70
2022/12/15 12:52:21;;;;;;;;;;;;;;;;;;5109625;28;1064;-69
2022/12/15 12:54:54;;;;;;;;;;;;;;;;;;5109069;28;1332;-69
2022/12/15 12:57:34;;;;;;;;;;;;;;;;;;5109978;28;1913;-69
2022/12/15 12:59:59;;;;;;;;;;;;;;;;;;5108904;28;1284;-69
2022/12/15 13:02:24;;;;;;;;;;;;;;;;;;5109768;28;809;-69
2022/12/15 13:04:59;;;;;;;;;;;;;;;;;;5110309;28;883;-70
2022/12/15 13:07:33;;;;;;;;;;;;;;;;;;5108071;28;1439;-69
2022/12/15 13:10:01;;;;;;;;;;;;;;;;;;5109504;28;1320;-69
2022/12/15 13:12:36;;;;;;;;;;;;;;;;;;5109683;28;947;-69
2022/12/15 13:15:16;;;;;;;;;;;;;;;;;;5110790;28;840;-69
2022/12/15 13:17:47;;;;;;;;;;;;;;;;;;5110714;28;1997;-69
2022/12/15 13:20:31;;;;;;;;;;;;;;;;;;5111065;28;1002;-70
2022/12/15 13:23:15;;;;;;;;;;;;;;;;;;5111746;28;899;-69
2022/12/15 13:25:41;;;;;;;;;;;;;;;;;;5111442;28;844;-69
2022/12/15 13:28:17;;;;;;;;;;;;;;;;;;5109716;28;797;-69
2022/12/15 13:31:01;;;;;;;;;;;;;;;;;;5109117;28;1379;-70
2022/12/15 13:33:26;;;;;;;;;;;;;;;;;;5108189;28;1182;-70
2022/12/15 13:35:51;;;;;;;;;;;;;;;;;;5110166;28;1922;-70
2022/12/15 13:38:17;;;;;;;;;;;;;;;;;;5108246;28;761;-70
2022/12/15 13:40:46;;;;;;;;;;;;;;;;;;5110577;28;788;-70
2022/12/15 13:43:26;;;;;;;;;;;;;;;;;;5109709;28;994;-69
2022/12/15 13:45:57;;;;;;;;;;;;;;;;;;5108650;28;1217;-69
2022/12/15 13:48:29;;;;;;;;;;;;;;;;;;5109285;28;987;-69
2022/12/15 13:51:03;;;;;;;;;;;;;;;;;;5107953;28;1260;-69
2022/12/15 13:53:32;;;;;;;;;;;;;;;;;;5106716;28;1309;-69
2022/12/15 13:56:02;;;;;;;;;;;;;;;;;;5111437;28;1968;-69
2022/12/15 13:58:30;;;;;;;;;;;;;;;;;;5111385;28;1175;-70
2022/12/15 14:00:56;;;;;;;;;;;;;;;;;;5113935;27;911;-69
2022/12/15 14:03:22;;;;;;;;;;;;;;;;;;5113067;28;843;-69
2022/12/15 14:05:49;;;;;;;;;;;;;;;;;;5112122;28;1321;-69
2022/12/15 14:08:15;;;;;;;;;;;;;;;;;;5111371;28;1369;-69
2022/12/15 14:10:40;;;;;;;;;;;;;;;;;;5113665;28;888;-69
2022/12/15 14:13:26;;;;;;;;;;;;;;;;;;5113340;28;894;-69
2022/12/15 14:16:02;;;;;;;;;;;;;;;;;;5112735;28;1958;-69
2022/12/15 14:18:32;;;;;;;;;;;;;;;;;;5112470;28;1065;-71
2022/12/15 14:20:58;;;;;;;;;;;;;;;;;;5113276;28;836;-71
2022/12/15 14:23:25;;;;;;;;;;;;;;;;;;5112577;28;836;-72
2022/12/15 14:26:03;;;;;;;;;;;;;;;;;;5113124;28;939;-71
2022/12/15 14:28:30;;;;;;;;;;;;;;;;;;5110847;28;1162;-71
2022/12/15 14:31:01;;;;;;;;;;;;;;;;;;5112889;28;828;-72
2022/12/15 14:33:27;;;;;;;;;;;;;;;;;;5110933;28;1077;-71
2022/12/15 14:35:54;;;;;;;;;;;;;;;;;;5111694;28;1960;-72
2022/12/15 14:38:22;;;;;;;;;;;;;;;;;;5110545;28;1368;-74
2022/12/15 14:40:48;;;;;;;;;;;;;;;;;;5111573;28;1311;-71
2022/12/15 14:43:26;;;;;;;;;;;;;;;;;;5113233;28;876;-71
2022/12/15 14:46:09;;;;;;;;;;;;;;;;;;5113819;28;899;-71
2022/12/15 14:48:41;;;;;;;;;;;;;;;;;;5112526;28;1297;-70
2022/12/15 14:51:08;;;;;;;;;;;;;;;;;;5113942;28;856;-70
2022/12/15 14:53:36;;;;;;;;;;;;;;;;;;5112663;28;1187;-69
2022/12/15 14:56:21;;;;;;;;;;;;;;;;;;5112517;28;1961;-69
2022/12/15 14:58:51;;;;;;;;;;;;;;;;;;5111339;28;1190;-71
2022/12/15 15:01:22;;;;;;;;;;;;;;;;;;5110566;28;1499;-72
2022/12/15 15:03:55;;;;;;;;;;;;;;;;;;5110947;28;1217;-70
2022/12/15 15:06:22;;;;;;;;;;;;;;;;;;5109738;28;1135;-70
2022/12/15 15:08:51;;;;;;;;;;;;;;;;;;5112132;28;844;-70
2022/12/15 15:11:22;;;;;;;;;;;;;;;;;;5110323;28;1336;-70
2022/12/15 15:13:47;;;;;;;;;;;;;;;;;;5112595;28;934;-70
2022/12/15 15:16:14;;;;;;;;;;;;;;;;;;5110978;28;1870;-69
2022/12/15 15:18:40;;;;;;;;;;;;;;;;;;5111013;28;1166;-69
2022/12/15 15:21:06;;;;;;;;;;;;;;;;;;5111118;28;1336;-69
2022/12/15 15:23:32;;;;;;;;;;;;;;;;;;5110011;28;1340;-69
2022/12/15 15:26:03;;;;;;;;;;;;;;;;;;5110661;28;809;-69
2022/12/15 15:28:35;;;;;;;;;;;;;;;;;;5111183;28;1221;-69
2022/12/15 15:31:06;;;;;;;;;;;;;;;;;;5112614;28;875;-69
2022/12/15 15:33:32;;;;;;;;;;;;;;;;;;5111352;28;911;-69
2022/12/15 15:35:58;;;;;;;;;;;;;;;;;;5110992;28;1901;-69
2022/12/15 15:38:27;;;;;;;;;;;;;;;;;;5111602;28;840;-69
2022/12/15 15:40:54;;;;;;;;;;;;;;;;;;5112582;28;868;-69
2022/12/15 15:43:19;;;;;;;;;;;;;;;;;;5110238;28;1229;-69
2022/12/15 15:45:46;;;;;;;;;;;;;;;;;;5110541;28;934;-69
2022/12/15 15:48:16;;;;;;;;;;;;;;;;;;5111733;28;827;-69
2022/12/15 15:50:42;;;;;;;;;;;;;;;;;;5112362;28;792;-69
2022/12/15 15:53:13;;;;;;;;;;;;;;;;;;5111463;28;1211;-70
2022/12/15 15:55:38;;;;;;;;;;;;;;;;;;5111160;28;939;-69
2022/12/15 15:58:07;;;;;;;;;;;;;;;;;;5110191;28;1979;-69
2022/12/15 16:00:33;;;;;;;;;;;;;;;;;;5110776;28;903;-69
2022/12/15 16:02:58;;;;;;;;;;;;;;;;;;5110486;28;848;-69
2022/12/15 16:05:24;;;;;;;;;;;;;;;;;;5109361;28;1150;-69
2022/12/15 16:07:49;;;;;;;;;;;;;;;;;;5094114;28;1210;-70
2022/12/15 16:10:17;;;;;;;;;;;;;;;;;;5110726;28;769;-70
2022/12/15 16:12:50;;;;;;;;;;;;;;;;;;5112316;28;863;-70
2022/12/15 16:15:19;;;;;;;;;;;;;;;;;;5111512;28;930;-70
2022/12/15 16:17:45;;;;;;;;;;;;;;;;;;5111673;28;1964;-70
2022/12/15 16:20:11;;;;;;;;;;;;;;;;;;5110689;28;1186;-70
2022/12/15 16:22:37;;;;;;;;;;;;;;;;;;5111806;28;1190;-70
2022/12/15 16:25:04;;;;;;;;;;;;;;;;;;5111395;28;801;-70
2022/12/15 16:27:30;;;;;;;;;;;;;;;;;;5108795;28;1257;-70
2022/12/15 16:29:55;;;;;;;;;;;;;;;;;;5110789;28;1010;-70
2022/12/15 16:32:21;;;;;;;;;;;;;;;;;;5108620;28;828;-70
2022/12/15 16:34:48;;;;;;;;;;;;;;;;;;5110921;28;923;-71
2022/12/15 16:37:23;;;;;;;;;;;;;;;;;;5109089;28;1917;-69
2022/12/15 16:39:48;;;;;;;;;;;;;;;;;;5110657;28;911;-69
2022/12/15 16:42:13;;;;;;;;;;;;;;;;;;5111296;28;935;-69
2022/12/15 16:44:38;;;;;;;;;;;;;;;;;;5110399;28;974;-69
2022/12/15 16:47:04;;;;;;;;;;;;;;;;;;5109421;28;1257;-69
2022/12/15 16:49:29;;;;;;;;;;;;;;;;;;5108643;28;1210;-70
2022/12/15 16:51:55;;;;;;;;;;;;;;;;;;5109103;28;1340;-70
2022/12/15 16:54:25;;;;;;;;;;;;;;;;;;5108641;28;1345;-70
2022/12/15 16:56:51;;;;;;;;;;;;;;;;;;5108492;28;1966;-70
2022/12/15 16:59:18;;;;;;;;;;;;;;;;;;5108806;28;1226;-70
2022/12/15 17:01:43;;;;;;;;;;;;;;;;;;5110621;28;890;-70
2022/12/15 17:04:09;;;;;;;;;;;;;;;;;;5110856;28;1041;-70
2022/12/15 17:06:34;;;;;;;;;;;;;;;;;;5108184;28;1225;-70
2022/12/15 17:09:00;;;;;;;;;;;;;;;;;;5108838;28;1225;-70
2022/12/15 17:11:26;;;;;;;;;;;;;;;;;;5108656;28;1300;-70
2022/12/15 17:13:52;;;;;;;;;;;;;;;;;;5108994;28;1030;-70
2022/12/15 17:16:18;;;;;;;;;;;;;;;;;;5108403;28;1901;-70
2022/12/15 17:18:44;;;;;;;;;;;;;;;;;;5108695;28;1104;-70
2022/12/15 17:21:11;;;;;;;;;;;;;;;;;;5092148;28;1042;-70
2022/12/15 17:23:38;;;;;;;;;;;;;;;;;;5109627;28;892;-70
2022/12/15 17:26:05;;;;;;;;;;;;;;;;;;5110535;28;919;-70
2022/12/15 17:28:31;;;;;;;;;;;;;;;;;;5109827;28;943;-70
2022/12/15 17:30:57;;;;;;;;;;;;;;;;;;5113827;28;821;-70
2022/12/15 17:33:24;;;;;;;;;;;;;;;;;;5095597;28;1257;-70
2022/12/15 17:35:51;;;;;;;;;;;;;;;;;;5112884;28;1107;-70
2022/12/15 17:38:18;;;;;;;;;;;;;;;;;;5112578;28;1902;-70
2022/12/15 17:40:44;;;;;;;;;;;;;;;;;;5112634;28;1337;-70
2022/12/15 17:43:13;;;;;;;;;;;;;;;;;;5114384;28;985;-70
2022/12/15 17:45:38;;;;;;;;;;;;;;;;;;5112043;28;1324;-70
2022/12/15 17:48:04;;;;;;;;;;;;;;;;;;5114168;28;867;-70
2022/12/15 17:50:31;;;;;;;;;;;;;;;;;;5112472;28;947;-70
2022/12/15 17:52:57;;;;;;;;;;;;;;;;;;5113399;28;1257;-70
2022/12/15 17:55:24;;;;;;;;;;;;;;;;;;5105597;28;1210;-70
2022/12/15 17:57:50;;;;;;;;;;;;;;;;;;5091497;28;1965;-70
2022/12/15 18:00:16;;;;;;;;;;;;;;;;;;5075242;28;1302;-71
2022/12/15 18:02:41;;;;;;;;;;;;;;;;;;5093667;28;986;-71
2022/12/15 18:05:06;;;;;;;;;;;;;;;;;;5092195;28;829;-71
2022/12/15 18:07:31;;;;;;;;;;;;;;;;;;5091181;28;852;-71
2022/12/15 18:09:57;;;;;;;;;;;;;;;;;;5091593;28;820;-71
2022/12/15 18:12:24;;;;;;;;;;;;;;;;;;5091388;28;840;-71
2022/12/15 18:14:49;;;;;;;;;;;;;;;;;;5092374;28;848;-72
2022/12/15 18:17:15;;;;;;;;;;;;;;;;;;5091403;28;1897;-71
2022/12/15 18:19:40;;;;;;;;;;;;;;;;;;5091165;28;778;-72
2022/12/15 18:22:13;;;;;;;;;;;;;;;;;;5074888;28;1301;-71
2022/12/15 18:24:38;;;;;;;;;;;;;;;;;;5092221;28;915;-72
2022/12/15 18:27:14;;;;;;;;;;;;;;;;;;5092962;28;868;-70
2022/12/15 18:29:40;;;;;;;;;;;;;;;;;;5091081;28;1154;-70
2022/12/15 18:32:05;;;;;;;;;;;;;;;;;;5092082;28;887;-70
2022/12/15 18:34:30;;;;;;;;;;;;;;;;;;5091083;28;1293;-70
2022/12/15 18:36:55;;;;;;;;;;;;;;;;;;5074872;28;1934;-70
2022/12/15 18:39:25;;;;;;;;;;;;;;;;;;5090735;28;961;-70
2022/12/15 18:41:51;;;;;;;;;;;;;;;;;;5089466;28;1325;-70
2022/12/15 18:44:20;;;;;;;;;;;;;;;;;;5090840;28;1203;-70
2022/12/15 18:46:45;;;;;;;;;;;;;;;;;;5091073;28;1125;-70
2022/12/15 18:49:10;;;;;;;;;;;;;;;;;;5091444;28;1011;-70
2022/12/15 18:51:36;;;;;;;;;;;;;;;;;;5091985;28;915;-72
2022/12/15 18:54:02;;;;;;;;;;;;;;;;;;5090638;28;1413;-72
2022/12/15 18:56:27;;;;;;;;;;;;;;;;;;5091481;28;1914;-72
2022/12/15 18:58:52;;;;;;;;;;;;;;;;;;5073638;28;1097;-72
2022/12/15 19:01:17;;;;;;;;;;;;;;;;;;5073786;28;1249;-72
2022/12/15 19:03:46;;;;;;;;;;;;;;;;;;5073756;28;1146;-72
2022/12/15 19:06:39;;;;;;;;;;;;;;;;;;5074061;28;1198;-72
2022/12/15 19:09:06;;;;;;;;;;;;;;;;;;5092181;28;892;-72
2022/12/15 19:11:31;;;;;;;;;;;;;;;;;;5091160;28;1313;-72
2022/12/15 19:13:57;;;;;;;;;;;;;;;;;;5074724;28;1301;-72
2022/12/15 19:16:23;;;;;;;;;;;;;;;;;;5092585;28;1898;-73
2022/12/15 19:27:10;;;;;;;;;;;;;;;;;;5092882;28;647;-73
2022/12/15 19:29:35;;;;;;;;;;;;;;;;;;5092605;28;797;-73
2022/12/15 19:32:00;;;;;;;;;;;;;;;;;;5091453;28;982;-73
2022/12/15 19:34:26;;;;;;;;;;;;;;;;;;5089914;28;876;-72
2022/12/15 19:36:51;;;;;;;;;;;;;;;;;;5089777;28;1902;-72
2022/12/15 19:39:20;;;;;;;;;;;;;;;;;;5091377;28;911;-72
2022/12/15 19:41:45;;;;;;;;;;;;;;;;;;5090224;28;1335;-72
2022/12/15 19:44:13;;;;;;;;;;;;;;;;;;5073684;28;1270;-72
2022/12/15 19:46:40;;;;;;;;;;;;;;;;;;5091140;28;820;-72